Aviation Digital Data Service (ADDS)

Output produced by METARs form (2233 UTC 30 March 2017)
found at http://www.aviationweather.gov/adds/metars/
 
KCAE 302217Z 3022/3118 13010KT P6SM VCSH SCT015 BKN050 BKN100 
     TEMPO 3022/3024 BKN015 OVC040 
     FM310600 17006KT 4SM -SHRA BR OVC008 
     FM311400 24015G22KT P6SM BKN050 
     FM311700 24020G30KT P6SM SCT250
       
KCAK 301741Z 3018/3118 10010G20KT P6SM OVC050 
     FM310000 14010KT 6SM -TSRA BR SCT035CB OVC050 
     FM310400 17010KT P6SM OVC100 
     FM311100 16007KT 3SM -TSRA BR OVC005CB 
     FM311500 16007KT 4SM -DZ BR OVC003
       
KCAR 301720Z 3018/3118 35012KT P6SM SCT040 
     FM302300 35007KT P6SM SCT080
       
TAF AMD KCBM 302030Z 3020/3123 19012G18KT 9000 -SHRA BKN030 BKN150 QNH2970INS 
     TEMPO 3023/3102 21015G25KT 4800 -TSRA BKN020CB 
     BECMG 3101/3102 22009KT 9999 NSW SCT020 BKN050 QNH2975INS 
     BECMG 3114/3115 29010G15KT 9999 SKC QNH2979INS TX26/3020Z TN14/3111Z AMD 302030
       
KCDC 302154Z 3022/3118 20030G40KT P6SM SCT080 BKN100 
     FM302230 19030G40KT P6SM VCTS BKN040CB BKN080 
     FM310000 29011KT 6SM -RA SCT020 BKN040 
     FM310200 34011KT 1SM -SN BR SCT008 BKN015
       
KCDR 301720Z 3018/3118 13009KT P6SM BKN150 
     FM310100 11012KT P6SM VCSH BKN040 
     FM310600 09009KT 3SM -RA BR OVC015
       
KCDS 301731Z 3018/3118 VRB05KT P6SM FEW250 
     FM302300 08007KT P6SM FEW250
       
KCEC 301720Z 3018/3118 34016G22KT P6SM SCT050 
     FM302000 34019G26KT P6SM SCT040 SCT250 
     FM310400 36008KT P6SM SKC 
     FM310900 04005KT P6SM SCT080
       
TAF KCEF 301800Z 3018/3124 VRB06KT 9999 BKN150 QNH3012INS 
     BECMG 3107/3108 VRB06KT 4800 -SNPL FEW004 BKN020 620209 QNH3011INS 
     BECMG 3111/3112 08012G18KT 3200 -SNPL OVC004 620109 QNH3010INS 
     BECMG 3115/3116 08020G30KT 3200 -SNPL OVC004 620109 510003 QNH3004INS 
     BECMG 3119/3120 08012KT 8000 -RAPL OVC004 620109 QNH2995INS TX10/3019Z TN01/3114Z
       
KCGI 302055Z 3021/3118 22015G25KT P6SM SCT040 
     FM310000 23009KT P6SM VCSH SCT015 BKN035 
     FM310600 27007KT P6SM OVC015 
     FM311500 30011G18KT P6SM BKN020
       
KCHA 301720Z 3018/3118 17012G22KT P6SM SCT030 BKN070 
     FM310000 16013G20KT P6SM VCSH SCT045 BKN080 
     FM310300 20010KT 5SM -TSRA BR SCT030CB BKN045 
     FM310500 VRB15G25KT 3SM TSRA BR BKN025CB 
     FM310800 25008KT 6SM BR SCT030 BKN060 
     FM311200 25010KT P6SM BKN040
       
KCHO 301736Z 3018/3118 14006KT P6SM SCT045 OVC050 
     FM310600 11005KT 5SM -RA BKN015 OVC025 
     FM310900 09005KT 3SM -RA BKN010 OVC025 
     FM311200 10006KT 3SM RA BKN008 OVC025 
     FM311500 12005KT 2SM RA BKN008 OVC020 
     FM311700 17005KT 3SM RA SCT020 OVC035
       
TAF COR KCHS 301833Z 3018/3118 12013G21KT P6SM SHRA SCT025 BKN040 
     FM302000 14013G19KT P6SM VCSH FEW025 SCT040 
     FM310000 14009KT P6SM SCT015 BKN035 
     FM310600 19008KT P6SM SCT015 BKN040 
     FM310900 20010KT P6SM VCSH SCT015 BKN030 
     FM311400 23015G25KT P6SM BKN050
       
KCID 301856Z 3019/3118 05014KT P6SM OVC006 
     FM302100 03014KT 6SM -DZ BR OVC005 
     FM310300 36014KT 3SM BR OVC005 
     FM311400 35014KT 6SM BR OVC010
       
KCKB 302000Z 3020/3118 17009G16KT P6SM BKN130 
     FM311100 15007KT 6SM SHRA OVC040 
     FM311200 15007KT 4SM SHRA OVC040 
     FM311500 17007KT 3SM SHRA OVC015
       
KCKV 302105Z 3021/3118 22015G27KT P6SM BKN050 
     TEMPO 3023/3024 4SM TSRA BR OVC020CB 
     FM310200 23010KT P6SM SCT050 
     FM310500 24007KT 6SM BR OVC012
       
KCLE 301940Z 3020/3124 10012G20KT P6SM OVC060 
     FM310000 13012KT P6SM OVC060 
     TEMPO 3100/3104 2SM TSRA BR OVC035CB 
     FM310600 16009KT P6SM OVC060 
     FM311200 17006KT 3SM -TSRA BR SCT005 OVC015CB 
     FM311400 05005KT 6SM BR OVC005 
     FM311800 01006KT 4SM -RA BR OVC003
       
KCLL 302046Z 3021/3118 27009KT P6SM SKC 
     FM310100 18005KT P6SM SKC 
     FM311500 19009KT P6SM SKC
       
KCLM 302102Z 3021/3118 32012KT P6SM SCT040 
     FM310800 00000KT 3SM BR SCT005 
     TEMPO 3110/3112 1SM BR BKN005 
     FM311600 21004KT P6SM SCT010 BKN200
       
KCLT 302115Z 3021/3118 12008KT P6SM BKN029 OVC070 
     TEMPO 3021/3101 4SM -SHRA SCT029 BKN070 
     FM310100 15012G18KT 3SM SHRA BR OVC009 
     FM310900 18010KT 4SM -SHRA BR OVC003 
     PROB30 3109/3115 4SM -TSRA BR OVC007CB 
     FM311500 21010G18KT P6SM VCSH OVC015
       
KCMA 302001Z 3020/3118 22011KT P6SM SCT250 
     FM302200 28022G32KT P6SM SCT250 
     FM310300 28015G25KT P6SM SKC 
     FM310600 32010KT P6SM SKC 
     FM311100 34007KT P6SM SKC
       
KCMH 301750Z 3018/3118 15010G16KT P6SM BKN080 
     FM302300 17010KT P6SM VCTS BKN050CB 
     FM310400 16007KT 3SM -SHRA BR VCTS OVC025CB 
     FM310900 15006KT 3SM -SHRA BR OVC020 
     FM311200 17006KT 3SM -SHRA BR OVC020 
     FM311500 23008KT P6SM VCSH OVC018
       
KCMI 302203Z 3022/3118 30012G20KT 6SM -RA BR VCTS SCT015CB OVC080 
     FM310000 VRB05KT P6SM VCSH SCT015 BKN080 
     FM310300 23010KT P6SM SCT005 BKN080 
     FM310700 26010KT 4SM -RA BR OVC003 
     FM311400 32014KT 4SM -RA BR OVC005
       
KCMX 301735Z 3018/3118 10013G21KT P6SM BKN080 
     FM302000 10012G19KT P6SM BKN080 
     FM310400 10009KT P6SM FEW030 BKN080 
     FM310800 07008KT P6SM SCT080 
     FM311300 04009KT P6SM SKC
       
KCNM 302009Z 3020/3118 26017G22KT P6SM SCT250 
     FM310000 22009KT P6SM SCT250
       
KCNU 301746Z 3018/3118 29013G18KT 5SM -RA BR SCT008 OVC012 
     FM301900 31013KT P6SM VCSH OVC010 
     FM310800 34005KT P6SM OVC010 
     FM311300 01004KT P6SM SCT015
       
KCNY 301739Z 3018/3118 10009KT P6SM SCT080 BKN150 
     FM302000 20016G26KT P6SM SCT080 BKN150 
     FM310000 21015G25KT P6SM VCSH SCT040 BKN080 
     FM310300 21010KT P6SM -RA SCT020 BKN040 
     FM310700 14008KT P6SM -RA SCT020 BKN040
       
KCOD 302121Z 3021/3118 35012KT P6SM -RA SCT012 OVC022 
     TEMPO 3021/3023 OVC012 
     FM310600 01020G30KT P6SM -RA OVC022 
     FM311700 01015G25KT 4SM -SN OVC015 AMD LTD TO CLD VIS AND WIND
       
KCOE 301727Z 3018/3118 26006KT P6SM -SHRA SCT020 BKN030 BKN070 
     FM302300 30007KT P6SM VCSH BKN035 OVC060 
     FM310200 34005KT P6SM SCT040 BKN080 
     FM310600 01006KT P6SM FEW040 
     FM311300 03005KT P6SM SCT005
       
TAF KCOF 301000Z 3010/3116 VRB06KT 9999 FEW040 QNH3001INS 
     BECMG 3016/3017 12010G15KT 9999 FEW040 QNH3000INS 
     BECMG 3101/3102 19012G18KT 9999 SCT040 SCT220 QNH2993INS 
     BECMG 3114/3115 22012G20KT 9999 VCTS FEW030CB SCT050 BKN120 QNH29996NS TX28/3017Z TN20/3011Z FCST BY USAF WX MET TECH
       
KCON 301722Z 3018/3118 32012KT P6SM FEW250 
     FM310000 34004KT P6SM SCT250 
     FM311300 05004KT P6SM OVC025 
     FM311500 07005KT P6SM OVC015 
     PROB30 3115/3118 2SM -SNRA OVC007
       
KCOS 302012Z 3020/3118 15010G20KT P6SM SCT120 SCT250 
     FM310000 16011KT P6SM SCT090 BKN150 
     FM310300 11009KT P6SM BKN140 
     FM310700 06009KT P6SM SCT008 OVC012
       
KCOU 302037Z 3021/3118 26010KT P6SM OVC025 
     TEMPO 3021/3023 OVC035 
     FM310100 27008KT P6SM VCSH OVC015 
     FM310400 31010KT P6SM OVC008 
     FM311700 32012KT P6SM OVC015
       
KCPS 301722Z 3018/3118 21010KT 6SM -RA VCTS OVC035CB 
     TEMPO 3018/3019 VRB15G25KT 2SM +TSRAGR BR OVC020CB 
     FM301900 24011KT P6SM VCSH OVC050 
     FM302100 25009KT P6SM BKN040 
     FM310500 27008KT 5SM -RA OVC015 
     FM311000 30011KT P6SM OVC008 
     FM311700 32010KT P6SM OVC015
       
KCRE 301736Z 3018/3118 11013G22KT P6SM FEW035 BKN070 
     PROB30 3107/3109 4SM TSRA BKN020CB 
     FM310900 17013KT P6SM SHRA VCTS SCT020CB OVC050 
     FM311700 20017KT 4SM SHRA VCTS BKN025CB BKN080
       
KCRG 301829Z 3018/3118 18009KT P6SM BKN060 
     FM301900 12009KT P6SM BKN060 
     FM302200 15009KT P6SM VCSH BKN060 
     FM310200 18005KT P6SM SCT060 BKN250 
     FM310900 20007KT P6SM VCSH OVC050 
     FM311100 21009KT P6SM VCTS OVC050CB
       
KCRP 301720Z 3018/3118 01010KT P6SM SKC 
     FM302100 VRB06KT P6SM SKC
       
KCRQ 301958Z 3020/3118 24012G18KT P6SM FEW010 
     TEMPO 3022/3102 BKN010 
     FM310200 25008KT P6SM BKN018 
     FM310500 VRB05KT P6SM SCT020
       
KCRW 302000Z 3020/3118 15009G20KT P6SM SCT050 BKN080 
     FM302300 16012G17KT P6SM BKN100 
     FM310800 15007KT 4SM SHRA OVC060 
     FM311400 21007KT 3SM SHRA OVC020 
     FM311500 22007KT 3SM SHRA OVC015
       
KCSG 301734Z 3018/3118 23010KT P6SM SCT040 SCT250 
     FM302000 21013G20KT P6SM VCSH BKN040 
     FM310100 22010KT 5SM -SHRA BKN030 
     TEMPO 3102/3106 VRB20G30KT 3SM TSRA BKN020CB 
     FM310600 23008KT P6SM -SHRA OVC025 
     FM310900 24007KT P6SM VCSH OVC015 
     FM311400 28009KT P6SM SCT040
       
KCSM 301720Z 3018/3118 32014G24KT P6SM SKC 
     FM302000 35010KT P6SM SKC 
     FM310200 09010KT P6SM SKC 
     FM311000 10010KT P6SM SCT014 BKN020 
     FM311400 13015KT P6SM SCT030
       
KCSV 302109Z 3021/3118 19015G25KT P6SM BKN070 
     TEMPO 3102/3103 4SM TSRA BR OVC020CB 
     FM310400 23008G15KT P6SM SCT050 
     FM310700 24007KT 6SM BR OVC012
       
KCTB 301910Z 3019/3118 30015G25KT P6SM FEW060 
     FM310000 31015KT P6SM BKN200 
     FM310800 34015KT P6SM VCSH BKN020 
     FM311100 34015KT P6SM BKN030
       
KCUB 302217Z 3022/3118 14008KT P6SM VCSH BKN050 BKN100 
     TEMPO 3022/3024 BKN015 OVC040 
     FM310600 17006KT 4SM -SHRA BR OVC008 
     FM311400 24012G22KT P6SM BKN050 
     FM311700 24018G28KT P6SM SCT250
       
KCVG 302101Z 3021/3124 20014G22KT P6SM SCT050 SCT100 BKN250 
     FM302300 19010KT P6SM SCT040 BKN100 
     FM310200 19007KT 5SM -SHRA BR VCTS OVC040CB 
     TEMPO 3102/3106 3SM TSRA BR OVC025CB 
     FM310600 19005KT 3SM -SHRA BR OVC025 
     FM311000 21006KT P6SM OVC020 
     FM311200 23006KT P6SM OVC016 
     FM312200 27009KT P6SM OVC012
       
TAF AMD KCVS 302048Z 3020/3124 25012KT 9999 SCT220 QNH2971INS 
     BECMG 3023/3024 26009KT 9999 FEW100 SCT170 QNH2968INS 
     BECMG 3114/3115 25012G18KT 9999 SCT180 SCT250 QNH2970INS 
     BECMG 3117/3118 24015G25KT 9999 BKN180 520009 QNH2967INS 
     BECMG 3120/3121 24025G35KT 9999 SCT110 BKN140 530009 QNH2962INS TX25/3022Z TN06/3112Z
       
KCWA 301749Z 3018/3118 07012G23KT P6SM -DZ BKN012 
     TEMPO 3018/3022 -RA BKN007 
     FM302200 06011G20KT P6SM -DZ BKN008 
     FM310900 03010G17KT P6SM BKN008 
     FM311200 03009KT P6SM BKN020 
     FM311500 03012G21KT P6SM BKN100
       
KCXO 302049Z 3021/3118 29006KT P6SM SKC 
     FM310000 17003KT P6SM SKC 
     FM311500 18008KT P6SM SKC
       
KCXP 301737Z 3018/3118 33020G35KT P6SM VCSH SCT030 OVC050 
     FM301900 32018G30KT P6SM FEW035 BKN050 
     FM310100 35013G24KT P6SM SCT050 
     FM311000 35008KT P6SM SKC
       
KCYS 301720Z 3018/3118 26012G20KT P6SM BKN100 BKN150 
     FM302100 22010G20KT P6SM SCT100 BKN150 
     FM310100 13008KT P6SM BKN100 
     FM310600 09009KT 2SM BR OVC015 
     FM311500 10011KT 1SM -SN BR OVC015